Time;durP1;ratioP1;P1;durP2;ratioP2;P2;SDS_P1;SDS_P2;PMS_P1;PMS_P2;Temp;Humidity;BMP_temperature;BMP_pressure;BME280_temperature;BME280_humidity;BME280_pressure;Samples;Min_cycle;Max_cycle;Signal;HPM_P1;HPM_P2
2022/03/13 00:00:30;;;;;;;6.03;4.10;;;;;;;9.84;32.70;96212.09;5033766;28;20297;-80
2022/03/13 00:02:58;;;;;;;7.27;4.57;;;;;;;9.76;32.79;96233.16;5036802;28;20203;-78
2022/03/13 00:05:25;;;;;;;7.70;4.77;;;;;;;9.69;33.24;96208.16;5037930;28;20191;-80
2022/03/13 00:07:55;;;;;;;5.43;4.00;;;;;;;9.81;32.41;96211.72;5024054;28;20210;-79
2022/03/13 00:10:27;;;;;;;5.83;4.10;;;;;;;9.80;32.68;96207.38;5033871;28;20214;-80
2022/03/13 00:12:55;;;;;;;5.70;4.33;;;;;;;9.97;31.30;96237.22;5049464;28;20308;-79
2022/03/13 00:15:34;;;;;;;8.67;4.17;;;;;;;9.93;32.02;96231.47;5047391;28;20218;-78
2022/03/13 00:18:04;;;;;;;8.47;4.53;;;;;;;9.81;32.71;96228.72;5028872;28;20217;-78
2022/03/13 00:20:33;;;;;;;5.67;4.07;;;;;;;9.73;32.82;96234.44;5047410;28;20210;-80
2022/03/13 00:23:00;;;;;;;5.97;4.30;;;;;;;9.72;32.71;96240.88;5027891;28;20297;-78
2022/03/13 00:25:27;;;;;;;5.63;3.80;;;;;;;9.79;32.53;96249.69;5039246;28;20205;-77
2022/03/13 00:27:55;;;;;;;6.23;4.13;;;;;;;9.78;32.54;96231.88;5055455;28;20296;-79
2022/03/13 00:30:23;;;;;;;6.73;4.20;;;;;;;9.97;31.80;96248.00;5026095;28;20209;-78
2022/03/13 00:32:50;;;;;;;7.63;4.47;;;;;;;9.88;32.61;96217.84;5033487;28;20233;-80
2022/03/13 00:35:20;;;;;;;6.27;4.17;;;;;;;9.66;33.37;96246.34;5034678;28;20210;-79
2022/03/13 00:37:47;;;;;;;6.17;4.23;;;;;;;9.90;31.84;96245.41;5027694;28;20224;-79
2022/03/13 00:40:15;;;;;;;6.80;4.37;;;;;;;9.74;33.20;96249.56;5030520;28;20206;-79
2022/03/13 00:42:42;;;;;;;6.10;4.23;;;;;;;9.65;32.98;96247.41;5048741;28;20202;-79
2022/03/13 00:45:10;;;;;;;6.47;4.17;;;;;;;9.74;32.97;96243.34;5034992;28;20305;-79
2022/03/13 00:47:37;;;;;;;4.73;3.83;;;;;;;9.79;32.53;96241.59;5027823;28;20257;-79
2022/03/13 00:50:05;;;;;;;6.33;4.30;;;;;;;9.71;33.13;96246.50;5027345;28;20229;-79
2022/03/13 00:52:34;;;;;;;5.57;4.10;;;;;;;9.70;32.94;96255.63;5029537;28;20202;-79
2022/03/13 00:55:01;;;;;;;5.13;3.80;;;;;;;9.90;31.92;96244.59;5032736;28;20217;-78
2022/03/13 00:57:29;;;;;;;5.63;3.83;;;;;;;9.87;32.21;96254.78;5024968;28;20305;-79
2022/03/13 00:59:56;;;;;;;6.60;3.97;;;;;;;9.78;32.70;96245.34;5036748;28;20211;-79
2022/03/13 01:02:23;;;;;;;6.53;4.10;;;;;;;9.75;32.55;96240.44;5030008;28;20614;-80
2022/03/13 01:04:53;;;;;;;6.40;4.33;;;;;;;9.77;32.50;96259.09;5042085;28;20206;-80
2022/03/13 01:07:20;;;;;;;6.43;4.00;;;;;;;9.69;32.70;96249.44;5030068;28;20206;-80
2022/03/13 01:09:49;;;;;;;6.17;4.13;;;;;;;9.62;33.01;96229.81;5045003;28;20295;-81
2022/03/13 01:12:16;;;;;;;5.37;3.87;;;;;;;9.77;32.48;96230.25;5025796;28;20199;-78
2022/03/13 01:14:43;;;;;;;5.80;4.00;;;;;;;9.74;32.46;96243.34;5049302;28;20210;-79
2022/03/13 01:17:11;;;;;;;5.53;3.90;;;;;;;9.74;32.68;96230.69;5052777;28;20214;-80
2022/03/13 01:19:38;;;;;;;5.40;3.70;;;;;;;9.78;31.88;96222.97;5029756;28;20246;-80
2022/03/13 01:22:06;;;;;;;7.00;4.30;;;;;;;9.56;33.32;96228.03;5029126;28;20210;-79
2022/03/13 01:24:43;;;;;;;5.90;4.00;;;;;;;9.69;32.70;96225.19;5022564;28;20268;-78
2022/03/13 01:27:13;;;;;;;5.83;4.07;;;;;;;9.66;32.83;96230.19;5043582;28;20304;-79
2022/03/13 01:29:41;;;;;;;6.63;4.27;;;;;;;9.63;32.77;96234.16;5029391;28;20225;-79
2022/03/13 01:32:10;;;;;;;6.20;4.00;;;;;;;9.75;32.20;96212.66;5028192;28;20529;-80
2022/03/13 01:34:49;;;;;;;6.00;3.77;;;;;;;9.61;33.25;96222.75;5029057;28;20213;-80
2022/03/13 01:37:28;;;;;;;5.50;3.80;;;;;;;9.62;32.69;96226.28;5029923;28;20232;-80
2022/03/13 01:39:55;;;;;;;6.43;4.27;;;;;;;9.54;32.82;96205.84;5040028;28;20211;-79
2022/03/13 01:42:23;;;;;;;4.90;3.80;;;;;;;9.69;32.33;96225.19;5025636;28;20285;-80
2022/03/13 01:44:50;;;;;;;5.20;3.93;;;;;;;9.70;32.31;96191.75;5029416;28;20242;-80
2022/03/13 01:47:17;;;;;;;5.47;3.60;;;;;;;9.55;33.08;96215.59;5037503;28;20287;-79
2022/03/13 01:49:46;;;;;;;5.80;3.90;;;;;;;9.73;32.03;96226.34;5025346;28;20226;-78
2022/03/13 01:52:14;;;;;;;6.23;4.10;;;;;;;9.57;33.35;96216.19;5030181;28;20248;-79
2022/03/13 01:54:43;;;;;;;7.07;4.40;;;;;;;9.51;33.14;96217.09;5026654;28;20214;-79
2022/03/13 01:57:15;;;;;;;4.87;3.57;;;;;;;9.80;31.56;96237.88;5029330;28;20709;-78
2022/03/13 01:59:46;;;;;;;5.80;4.40;;;;;;;9.68;32.83;96228.09;5028611;28;20206;-77
2022/03/13 02:02:13;;;;;;;7.03;4.23;;;;;;;9.49;33.46;96213.81;5041334;28;20207;-79
2022/03/13 02:04:43;;;;;;;4.90;3.93;;;;;;;9.76;31.42;96198.94;5029100;28;20283;-79
2022/03/13 02:07:10;;;;;;;5.47;4.27;;;;;;;9.81;31.63;96209.03;5029661;28;20202;-80
2022/03/13 02:09:37;;;;;;;5.87;4.27;;;;;;;9.64;32.62;96225.00;5020054;28;20203;-80
2022/03/13 02:12:08;;;;;;;5.97;4.33;;;;;;;9.48;33.24;96185.22;5026356;28;20259;-79
2022/03/13 02:14:36;;;;;;;7.10;4.30;;;;;;;9.68;32.33;96191.16;5037776;28;20206;-78
2022/03/13 02:17:04;;;;;;;5.87;4.50;;;;;;;9.61;32.58;96203.88;5023866;28;20226;-80
2022/03/13 02:19:32;;;;;;;6.80;4.07;;;;;;;9.78;31.42;96179.84;5052199;28;20288;-80
2022/03/13 02:22:01;;;;;;;8.03;4.87;;;;;;;9.61;32.84;96182.31;5031268;28;20249;-81
2022/03/13 02:24:29;;;;;;;5.63;4.00;;;;;;;9.61;32.41;96195.81;5047183;28;21350;-79
2022/03/13 02:27:00;;;;;;;5.03;3.90;;;;;;;9.84;30.81;96179.75;5024375;28;20278;-81
2022/03/13 02:29:28;;;;;;;5.10;3.70;;;;;;;9.94;30.60;96186.44;5042902;28;20209;-81
2022/03/13 02:31:57;;;;;;;6.53;4.53;;;;;;;9.78;32.23;96198.72;5041752;28;20202;-80
2022/03/13 02:34:24;;;;;;;5.87;4.10;;;;;;;-141.59;100.00;61776.25;5023676;28;20241;-78
2022/03/13 02:37:01;;;;;;;5.30;3.53;;;;;;;9.80;31.34;96193.91;5039053;28;20226;-80
2022/03/13 02:39:34;;;;;;;6.93;4.30;;;;;;;9.85;31.04;96191.34;5024919;28;20210;-79
2022/03/13 02:42:01;;;;;;;5.90;3.70;;;;;;;9.85;31.31;96175.16;5025338;28;20233;-80
2022/03/13 02:44:28;;;;;;;5.30;3.53;;;;;;;9.70;32.15;96182.84;5021996;28;20233;-79
2022/03/13 02:46:59;;;;;;;6.30;3.80;;;;;;;9.56;32.50;96192.97;5045331;28;20198;-79
2022/03/13 02:49:29;;;;;;;7.87;4.43;;;;;;;9.55;32.54;96201.28;5052623;28;20300;-78
2022/03/13 02:52:00;;;;;;;6.47;4.10;;;;;;;9.55;32.56;96210.19;5042910;28;20206;-80
2022/03/13 02:54:27;;;;;;;5.40;3.83;;;;;;;9.53;32.45;96216.88;5044559;28;20218;-77
2022/03/13 02:56:56;;;;;;;5.10;3.80;;;;;;;9.53;32.45;96216.88;5030630;28;20222;-81
2022/03/13 02:59:23;;;;;;;5.70;4.17;;;;;;;9.63;32.07;95939.13;5050471;28;20219;-80
2022/03/13 03:01:50;;;;;;;8.10;3.97;;;;;;;9.71;32.03;96206.88;5044670;28;20202;-80
2022/03/13 03:04:22;;;;;;;6.27;4.17;;;;;;;9.71;32.03;96206.88;5020759;28;20298;-80
2022/03/13 03:07:02;;;;;;;6.10;4.10;;;;;;;9.54;32.34;96216.63;5025780;28;20303;-77
2022/03/13 03:09:31;;;;;;;5.60;4.20;;;;;;;9.61;32.23;96208.50;5026655;28;20240;-80
2022/03/13 03:12:04;;;;;;;5.77;3.57;;;;;;;9.83;31.21;96210.44;5022305;28;20201;-79
2022/03/13 03:14:32;;;;;;;6.53;4.03;;;;;;;9.81;31.29;96193.66;5027339;28;20222;-79
2022/03/13 03:16:59;;;;;;;5.53;3.73;;;;;;;9.70;31.75;96216.00;5023250;28;20225;-78
2022/03/13 03:19:27;;;;;;;5.10;3.83;;;;;;;9.75;31.51;96213.47;5039605;28;20221;-78
2022/03/13 03:21:54;;;;;;;5.80;3.67;;;;;;;9.68;32.40;96209.22;5031187;28;20213;-80
2022/03/13 03:24:23;;;;;;;5.97;3.97;;;;;;;9.59;32.25;96206.00;5022981;28;20218;-78
2022/03/13 03:26:54;;;;;;;5.10;3.53;;;;;;;9.65;32.02;96215.88;5024984;28;20312;-80
2022/03/13 03:29:24;;;;;;;6.10;4.00;;;;;;;9.59;32.02;96222.19;5045530;28;20206;-79
2022/03/13 03:31:52;;;;;;;5.30;3.80;;;;;;;9.65;32.11;96213.19;5033463;28;20234;-80
2022/03/13 03:34:22;;;;;;;5.87;3.90;;;;;;;9.65;32.11;96213.19;5038567;28;20256;-80
2022/03/13 03:36:51;;;;;;;5.87;3.60;;;;;;;9.68;31.56;96212.75;5047512;28;20268;-80
2022/03/13 03:39:19;;;;;;;6.47;4.20;;;;;;;9.66;31.76;96211.31;5028556;28;20210;-80
2022/03/13 03:41:48;;;;;;;5.93;4.10;;;;;;;9.56;32.20;96205.63;5031553;28;20209;-80
2022/03/13 03:44:15;;;;;;;5.37;3.57;;;;;;;9.60;32.11;96209.53;5025288;28;20235;-80
2022/03/13 03:46:45;;;;;;;5.93;4.00;;;;;;;9.55;32.30;96210.19;5024361;28;20278;-79
2022/03/13 03:49:12;;;;;;;6.03;3.70;;;;;;;9.58;32.21;96206.25;5043040;28;20214;-79
2022/03/13 03:51:39;;;;;;;4.87;3.60;;;;;;;9.58;32.05;96206.25;5018362;28;20214;-80
2022/03/13 03:54:08;;;;;;;5.77;3.80;;;;;;;9.62;31.92;96175.06;5025559;28;20317;-80
2022/03/13 03:56:35;;;;;;;6.13;3.87;;;;;;;9.64;31.87;96216.09;5040356;28;20226;-78
2022/03/13 03:59:03;;;;;;;6.57;3.90;;;;;;;9.58;32.26;96207.06;5031463;28;20208;-80
2022/03/13 04:01:37;;;;;;;5.67;3.83;;;;;;;9.49;32.35;96201.16;5018732;28;20207;-80
2022/03/13 04:04:06;;;;;;;5.60;4.00;;;;;;;9.58;31.92;96203.53;5040389;28;20210;-80
2022/03/13 04:06:34;;;;;;;5.97;3.63;;;;;;;9.47;32.38;96205.13;5041245;28;20260;-80
2022/03/13 04:09:01;;;;;;;5.87;3.67;;;;;;;9.51;32.23;96195.56;5020900;28;20215;-80
2022/03/13 04:11:28;;;;;;;6.37;4.03;;;;;;;9.67;31.44;96186.00;5043340;28;20205;-80
2022/03/13 04:13:55;;;;;;;6.33;3.63;;;;;;;9.67;31.44;96186.00;5023598;28;20210;-81
2022/03/13 04:16:22;;;;;;;4.30;3.60;;;;;;;9.68;31.53;96193.88;5026206;28;20206;-79
2022/03/13 04:18:49;;;;;;;4.23;3.33;;;;;;;9.61;31.78;96185.03;5041176;28;20215;-79
2022/03/13 04:21:18;;;;;;;4.13;3.30;;;;;;;9.43;32.55;96166.22;5023227;28;20249;-80
2022/03/13 04:23:45;;;;;;;4.47;3.70;;;;;;;9.41;32.81;96184.47;5035873;28;20231;-80
2022/03/13 04:26:12;;;;;;;4.43;3.30;;;;;;;9.49;32.13;96170.69;5019738;28;20217;-79
2022/03/13 04:28:39;;;;;;;5.17;3.50;;;;;;;9.68;31.59;96191.16;5019834;28;20238;-80
2022/03/13 04:31:08;;;;;;;4.57;3.40;;;;;;;9.67;31.57;96172.53;5026634;28;20214;-80
2022/03/13 04:33:37;;;;;;;5.00;3.70;;;;;;;9.67;31.90;96184.13;5034646;28;20214;-80
2022/03/13 04:36:06;;;;;;;4.40;3.37;;;;;;;9.61;32.25;96193.09;5021975;28;20285;-78
2022/03/13 04:38:34;;;;;;;4.60;3.47;;;;;;;9.72;31.53;96176.16;5038539;28;20234;-78
2022/03/13 04:41:01;;;;;;;4.87;3.17;;;;;;;9.54;32.24;96178.06;5022848;28;20243;-79
2022/03/13 04:43:28;;;;;;;4.50;3.47;;;;;;;9.55;32.12;96169.78;5027874;28;20222;-78
2022/03/13 04:45:57;;;;;;;3.93;2.93;;;;;;;-141.59;100.00;61776.25;5026503;28;20207;-76
2022/03/13 04:48:25;;;;;;;6.53;3.97;;;;;;;9.68;32.03;96156.13;5042304;28;20269;-79
2022/03/13 04:50:52;;;;;;;5.50;3.83;;;;;;;9.68;31.88;96149.91;5043328;28;20201;-80
2022/03/13 04:53:19;;;;;;;5.43;3.77;;;;;;;9.68;31.39;96160.69;5039966;28;20296;-80
2022/03/13 04:55:47;;;;;;;5.93;3.63;;;;;;;9.72;31.52;96169.94;5027135;28;20210;-80
2022/03/13 04:58:14;;;;;;;5.57;3.40;;;;;;;9.84;31.13;96173.53;5029477;28;20291;-78
2022/03/13 05:00:41;;;;;;;5.23;3.33;;;;;;;9.69;31.72;96163.16;5026135;28;20206;-80
2022/03/13 05:03:10;;;;;;;4.97;3.27;;;;;;;9.67;31.79;96176.03;5045403;28;20203;-79
2022/03/13 05:05:37;;;;;;;4.73;3.43;;;;;;;9.71;31.69;96162.91;5043828;28;20198;-79
2022/03/13 05:08:05;;;;;;;4.70;3.27;;;;;;;9.79;31.06;96165.28;5021995;28;20206;-80
2022/03/13 05:10:36;;;;;;;4.40;3.00;;;;;;;9.85;31.02;96165.22;5029551;28;20198;-79
2022/03/13 05:13:07;;;;;;;4.70;3.20;;;;;;;9.78;31.38;96180.63;5024879;28;20210;-79
2022/03/13 05:15:36;;;;;;;3.97;3.10;;;;;;;9.72;31.70;96159.16;5021687;28;20328;-80
2022/03/13 05:18:03;;;;;;;4.87;3.43;;;;;;;9.67;31.49;96151.78;5043694;28;20228;-80
2022/03/13 05:20:31;;;;;;;5.97;3.20;;;;;;;9.68;31.38;96156.13;5040616;28;20260;-80
2022/03/13 05:22:58;;;;;;;4.40;3.30;;;;;;;9.79;31.33;96152.63;5027409;28;20207;-80
2022/03/13 05:25:25;;;;;;;5.57;3.93;;;;;;;9.77;31.36;96156.63;5049308;28;20302;-80
2022/03/13 05:27:52;;;;;;;5.20;3.30;;;;;;;9.92;30.96;96150.78;5024899;28;20269;-80
2022/03/13 05:30:21;;;;;;;4.80;3.33;;;;;;;9.78;31.33;96137.50;5026544;28;20198;-80
2022/03/13 05:32:48;;;;;;;4.77;3.23;;;;;;;9.70;31.76;96167.47;5026515;28;20213;-80
2022/03/13 05:35:16;;;;;;;5.03;3.13;;;;;;;9.66;31.51;96142.03;5025345;28;20292;-80
2022/03/13 05:37:43;;;;;;;4.43;3.43;;;;;;;9.66;32.01;96160.91;5028704;28;20222;-80
2022/03/13 05:40:13;;;;;;;5.47;3.40;;;;;;;9.62;31.78;96170.50;5027484;28;20309;-80
2022/03/13 05:42:41;;;;;;;4.93;3.40;;;;;;;9.57;32.00;96159.59;5041368;28;20252;-80
2022/03/13 05:45:11;;;;;;;4.47;3.17;;;;;;;9.60;31.95;96144.84;5029326;28;20253;-80
2022/03/13 05:47:46;;;;;;;4.03;3.33;;;;;;;9.63;32.10;96166.75;5041409;28;20199;-79
2022/03/13 05:50:14;;;;;;;4.30;3.50;;;;;;;9.63;31.54;96158.66;5026061;28;20221;-79
2022/03/13 05:52:43;;;;;;;4.13;3.40;;;;;;;9.62;31.53;96159.72;5029651;28;20207;-79
2022/03/13 05:55:11;;;;;;;5.23;3.30;;;;;;;9.61;31.82;96158.06;5026607;28;20202;-80
2022/03/13 05:57:39;;;;;;;5.97;3.53;;;;;;;9.69;31.87;96154.25;5028137;28;20241;-78
2022/03/13 06:00:09;;;;;;;5.87;3.60;;;;;;;9.65;31.79;96153.88;5046714;28;20260;-80
2022/03/13 06:02:42;;;;;;;4.23;3.13;;;;;;;9.79;31.31;96173.38;5039093;28;20241;-78
2022/03/13 06:05:12;;;;;;;4.23;3.23;;;;;;;9.81;31.28;96160.50;5025125;28;20332;-80
2022/03/13 06:07:39;;;;;;;4.53;3.23;;;;;;;9.71;31.79;96162.91;5036445;28;20209;-80
2022/03/13 06:10:08;;;;;;;4.43;3.30;;;;;;;9.70;31.87;96172.88;5042897;28;20201;-79
2022/03/13 06:12:36;;;;;;;5.17;3.40;;;;;;;9.78;31.22;96191.41;5025175;28;20207;-79
2022/03/13 06:15:05;;;;;;;3.53;3.00;;;;;;;9.70;31.38;96174.75;5029038;28;20214;-78
2022/03/13 06:17:32;;;;;;;3.97;3.00;;;;;;;9.84;31.16;96179.75;5016362;28;20254;-81
2022/03/13 06:19:59;;;;;;;4.10;3.10;;;;;;;9.84;31.62;96166.25;5028027;28;20210;-80
2022/03/13 06:22:29;;;;;;;4.30;3.10;;;;;;;9.86;31.32;96174.94;5026032;28;20213;-78
2022/03/13 06:24:56;;;;;;;5.43;3.30;;;;;;;9.77;31.62;96179.03;5024205;28;20219;-79
2022/03/13 06:27:24;;;;;;;4.87;3.13;;;;;;;9.78;31.39;96153.66;5030464;28;20216;-80
2022/03/13 06:29:51;;;;;;;4.13;3.03;;;;;;;9.67;31.83;96149.09;5045972;28;20198;-80
2022/03/13 06:32:18;;;;;;;3.33;2.87;;;;;;;9.74;31.44;96165.97;5023665;28;20280;-79
2022/03/13 06:34:45;;;;;;;4.93;3.57;;;;;;;9.70;31.79;96174.75;5025752;28;20199;-80
2022/03/13 06:37:12;;;;;;;5.13;3.60;;;;;;;9.70;31.86;96174.75;5023798;28;20202;-78
2022/03/13 06:39:41;;;;;;;4.03;2.90;;;;;;;9.67;31.85;96162.56;5044250;28;20237;-80
2022/03/13 06:42:08;;;;;;;4.13;2.70;;;;;;;9.69;32.03;96147.00;5020010;28;20619;-80
2022/03/13 06:44:36;;;;;;;4.57;3.20;;;;;;;9.66;31.82;96143.91;5043016;28;20240;-80
2022/03/13 06:47:04;;;;;;;5.20;2.97;;;;;;;9.81;31.64;96149.69;5034470;28;20218;-79
2022/03/13 06:49:30;;;;;;;3.97;2.83;;;;;;;9.91;31.13;96133.78;5027846;28;20299;-80
2022/03/13 06:51:58;;;;;;;3.83;2.80;;;;;;;10.03;30.93;96161.63;5040563;28;20203;-79
2022/03/13 06:54:25;;;;;;;4.33;3.03;;;;;;;9.94;31.23;96154.09;5040064;28;20206;-79
2022/03/13 06:56:53;;;;;;;4.67;3.40;;;;;;;9.83;31.39;96166.47;5026520;28;20293;-79
2022/03/13 06:59:20;;;;;;;4.00;2.97;;;;;;;9.83;31.39;96166.47;5042707;28;20218;-80
2022/03/13 07:01:47;;;;;;;4.10;3.00;;;;;;;10.04;31.01;96140.84;5029634;28;20207;-80
2022/03/13 07:04:14;;;;;;;4.10;3.10;;;;;;;10.06;31.14;96144.94;5035698;28;20234;-80
2022/03/13 07:06:42;;;;;;;5.97;3.10;;;;;;;9.98;31.55;96160.66;5030396;28;20202;-78
2022/03/13 07:09:10;;;;;;;4.67;3.20;;;;;;;-141.59;100.00;61776.25;5029793;28;20260;-79
2022/03/13 07:11:37;;;;;;;3.67;2.93;;;;;;;-141.59;100.00;61776.25;5024447;28;20305;-80
2022/03/13 07:14:08;;;;;;;4.83;3.00;;;;;;;-141.59;100.00;61776.25;5035147;28;20272;-80
2022/03/13 07:16:36;;;;;;;4.77;2.93;;;;;;;-141.59;100.00;61776.25;5040507;28;20206;-79
2022/03/13 07:19:03;;;;;;;3.97;2.83;;;;;;;-141.59;100.00;61776.25;5022725;28;20225;-76
2022/03/13 07:21:30;;;;;;;4.90;2.90;;;;;;;-141.59;100.00;61776.25;5041058;28;20206;-79
2022/03/13 07:23:57;;;;;;;5.07;3.50;;;;;;;-141.59;100.00;61776.25;5043188;28;20218;-79
2022/03/13 07:26:24;;;;;;;6.20;3.73;;;;;;;-141.59;100.00;61776.25;5025020;28;20265;-80
2022/03/13 07:28:51;;;;;;;5.00;3.53;;;;;;;-141.59;100.00;61776.25;5025878;28;20209;-79
2022/03/13 07:31:19;;;;;;;4.80;3.07;;;;;;;-141.59;100.00;61776.25;5033728;28;20283;-77
2022/03/13 07:33:47;;;;;;;4.60;3.23;;;;;;;-141.59;100.00;61776.25;5030082;28;20206;-79
2022/03/13 07:36:14;;;;;;;4.40;2.97;;;;;;;-141.59;100.00;61776.25;5025461;28;20217;-79
2022/03/13 07:38:41;;;;;;;4.63;3.03;;;;;;;-141.59;100.00;61776.25;5025916;28;20332;-79
2022/03/13 07:41:08;;;;;;;3.67;2.87;;;;;;;-141.59;100.00;61776.25;5028649;28;20293;-78
2022/03/13 07:43:35;;;;;;;4.63;2.90;;;;;;;-141.59;100.00;61776.25;5031355;28;20248;-79
2022/03/13 07:46:02;;;;;;;3.50;2.50;;;;;;;-141.59;100.00;61776.25;5038426;28;20211;-80
2022/03/13 07:48:34;;;;;;;4.90;3.10;;;;;;;-141.59;100.00;61776.25;5038289;28;20203;-80
2022/03/13 07:51:01;;;;;;;3.50;2.97;;;;;;;-141.59;100.00;61776.25;5029620;28;20210;-78
2022/03/13 07:53:29;;;;;;;4.50;3.03;;;;;;;-141.59;100.00;61776.25;5031762;28;20265;-79
2022/03/13 07:55:56;;;;;;;3.83;3.00;;;;;;;-141.59;100.00;61776.25;5028543;28;20244;-81
2022/03/13 07:58:24;;;;;;;4.17;3.00;;;;;;;-141.59;100.00;61776.25;5031031;28;20222;-78
2022/03/13 08:00:51;;;;;;;5.27;3.40;;;;;;;-141.59;100.00;61776.25;5031146;28;20206;-82
2022/03/13 08:03:24;;;;;;;3.67;2.80;;;;;;;-141.59;100.00;61776.25;5024419;28;20209;-80
2022/03/13 08:05:53;;;;;;;4.90;3.00;;;;;;;-141.59;100.00;61776.25;5046241;28;20206;-76
2022/03/13 08:08:21;;;;;;;3.90;3.10;;;;;;;-141.59;100.00;61776.25;5028076;28;20221;-77
2022/03/13 08:10:49;;;;;;;3.77;2.90;;;;;;;-141.59;100.00;61776.25;5040458;28;20202;-80
2022/03/13 08:13:16;;;;;;;5.43;2.80;;;;;;;-141.59;100.00;61776.25;5047700;28;20256;-80
2022/03/13 08:15:43;;;;;;;4.13;2.83;;;;;;;-141.59;100.00;61776.25;5026222;28;20207;-80
2022/03/13 08:18:10;;;;;;;5.77;3.10;;;;;;;-141.59;100.00;61776.25;5044417;28;20225;-80
2022/03/13 08:20:37;;;;;;;5.07;3.10;;;;;;;-141.59;100.00;61776.25;5043723;28;20221;-79
2022/03/13 08:23:06;;;;;;;4.83;3.47;;;;;;;-141.59;100.00;61776.25;5023613;28;20230;-80
2022/03/13 08:25:34;;;;;;;3.63;3.00;;;;;;;-141.59;100.00;61776.25;5039329;28;20206;-80
2022/03/13 08:28:02;;;;;;;4.77;3.63;;;;;;;-141.59;100.00;61776.25;5044217;28;20199;-80
2022/03/13 08:30:29;;;;;;;3.70;3.10;;;;;;;-141.59;100.00;61776.25;5047643;28;20237;-81
2022/03/13 08:32:56;;;;;;;5.30;3.37;;;;;;;-141.59;100.00;61776.25;5049071;28;20237;-79
2022/03/13 08:35:24;;;;;;;4.03;3.20;;;;;;;-141.59;100.00;61776.25;5031214;28;20217;-80
2022/03/13 08:37:54;;;;;;;5.60;3.10;;;;;;;-141.59;100.00;61776.25;5020288;28;20206;-81
2022/03/13 08:40:25;;;;;;;5.73;3.37;;;;;;;-141.59;100.00;61776.25;5022819;28;20266;-80
2022/03/13 08:42:52;;;;;;;4.37;3.00;;;;;;;-141.59;100.00;61776.25;5018922;28;20546;-79
2022/03/13 08:45:19;;;;;;;5.37;3.43;;;;;;;-141.59;100.00;61776.25;5040926;28;20236;-79
2022/03/13 08:47:47;;;;;;;4.37;3.10;;;;;;;-141.59;100.00;61776.25;5039128;28;20243;-81
2022/03/13 08:50:15;;;;;;;5.20;3.43;;;;;;;-141.59;100.00;61776.25;5031693;28;20211;-80
2022/03/13 08:52:43;;;;;;;3.93;2.97;;;;;;;-141.59;100.00;61776.25;5033565;28;20220;-80
2022/03/13 08:55:13;;;;;;;4.40;3.20;;;;;;;-141.59;100.00;61776.25;5040099;28;20206;-78
2022/03/13 08:57:42;;;;;;;4.40;3.00;;;;;;;-141.59;100.00;61776.25;5019524;28;20293;-80
2022/03/13 09:00:10;;;;;;;5.27;3.37;;;;;;;-141.59;100.00;61776.25;5041499;28;20215;-81
2022/03/13 09:02:38;;;;;;;4.43;2.97;;;;;;;-141.59;100.00;61776.25;5026141;28;20214;-80
2022/03/13 09:05:05;;;;;;;5.67;3.50;;;;;;;-141.59;100.00;61776.25;5031682;28;20205;-78
2022/03/13 09:07:34;;;;;;;4.63;2.90;;;;;;;-141.59;100.00;61776.25;5045292;28;20202;-79
2022/03/13 09:10:02;;;;;;;5.80;3.20;;;;;;;-141.59;100.00;61776.25;5022127;28;20328;-80
2022/03/13 09:12:31;;;;;;;4.97;3.20;;;;;;;-141.59;100.00;61776.25;5027990;28;20389;-80
2022/03/13 09:14:59;;;;;;;4.07;2.90;;;;;;;-141.59;100.00;61776.25;5025834;28;20201;-81
2022/03/13 09:17:27;;;;;;;5.00;3.53;;;;;;;-141.59;100.00;61776.25;5028323;28;20209;-78
2022/03/13 09:19:55;;;;;;;4.33;3.10;;;;;;;-141.59;100.00;61776.25;5029862;28;20217;-81
2022/03/13 09:22:29;;;;;;;3.47;2.90;;;;;;;-141.59;100.00;61776.25;5047293;28;20229;-79
2022/03/13 09:24:57;;;;;;;4.47;2.87;;;;;;;-141.59;100.00;61776.25;5029847;28;20232;-79
2022/03/13 09:27:24;;;;;;;4.77;3.20;;;;;;;-141.59;100.00;61776.25;5028557;28;20194;-80
2022/03/13 09:29:51;;;;;;;3.50;3.00;;;;;;;-141.59;100.00;61776.25;5023452;28;20210;-80
2022/03/13 09:32:21;;;;;;;4.30;2.97;;;;;;;-141.59;100.00;61776.25;5027692;28;20230;-80
2022/03/13 09:34:48;;;;;;;3.87;2.93;;;;;;;-141.59;100.00;61776.25;5053885;28;20203;-80
2022/03/13 09:37:16;;;;;;;3.63;2.87;;;;;;;-141.59;100.00;61776.25;5041794;28;20221;-80
2022/03/13 09:39:43;;;;;;;5.47;3.20;;;;;;;-141.59;100.00;61776.25;5030487;28;20249;-80
2022/03/13 09:42:10;;;;;;;4.13;2.63;;;;;;;-141.59;100.00;61776.25;5029604;28;20195;-79
2022/03/13 09:44:37;;;;;;;4.90;3.17;;;;;;;-141.59;100.00;61776.25;5030066;28;20502;-80
2022/03/13 09:47:07;;;;;;;4.70;3.37;;;;;;;-141.59;100.00;61776.25;5027296;28;20198;-80
2022/03/13 09:49:36;;;;;;;3.93;3.10;;;;;;;-141.59;100.00;61776.25;5029625;28;20210;-81
2022/03/13 09:52:03;;;;;;;5.20;3.33;;;;;;;-141.59;100.00;61776.25;5040602;28;20202;-78
2022/03/13 09:54:30;;;;;;;3.93;3.10;;;;;;;-141.59;100.00;61776.25;5045874;28;20221;-79
2022/03/13 09:56:57;;;;;;;4.10;3.03;;;;;;;-141.59;100.00;61776.25;5026992;28;20203;-79
2022/03/13 09:59:24;;;;;;;3.90;3.10;;;;;;;-141.59;100.00;61776.25;5034458;28;20301;-80
2022/03/13 10:01:51;;;;;;;4.27;3.10;;;;;;;-141.59;100.00;61776.25;5026058;28;20202;-78
2022/03/13 10:04:18;;;;;;;2.70;2.30;;;;;;;-141.59;100.00;61776.25;5024793;28;20216;-80
2022/03/13 10:07:02;;;;;;;3.80;2.57;;;;;;;-141.59;100.00;61776.25;5026936;28;20214;-81
2022/03/13 10:09:30;;;;;;;4.30;2.80;;;;;;;-141.59;100.00;61776.25;5026702;28;20291;-78
2022/03/13 10:12:09;;;;;;;3.73;2.87;;;;;;;-141.59;100.00;61776.25;5025941;28;20221;-80
2022/03/13 10:14:38;;;;;;;3.50;2.53;;;;;;;-141.59;100.00;61776.25;5020674;28;20210;-81
2022/03/13 10:17:14;;;;;;;3.93;2.70;;;;;;;-141.59;100.00;61776.25;5030936;28;20210;-81
2022/03/13 10:19:41;;;;;;;5.03;2.57;;;;;;;-141.59;100.00;61776.25;5030490;28;20248;-79
2022/03/13 10:22:10;;;;;;;3.10;2.30;;;;;;;-141.59;100.00;61776.25;5021481;28;20203;-79
2022/03/13 10:24:43;;;;;;;4.47;2.90;;;;;;;-141.59;100.00;61776.25;5040365;28;20229;-80
2022/03/13 10:27:15;;;;;;;3.03;2.30;;;;;;;-141.59;100.00;61776.25;5031855;28;20202;-82
2022/03/13 10:29:43;;;;;;;4.20;2.80;;;;;;;-141.59;100.00;61776.25;5042482;28;20233;-79
2022/03/13 10:32:10;;;;;;;3.10;2.30;;;;;;;-141.59;100.00;61776.25;5025428;28;20532;-80
2022/03/13 10:34:39;;;;;;;2.40;2.17;;;;;;;-141.59;100.00;61776.25;5042120;28;20206;-79
2022/03/13 10:37:07;;;;;;;3.03;2.40;;;;;;;-141.59;100.00;61776.25;5030388;28;20252;-79
2022/03/13 10:39:35;;;;;;;3.40;2.40;;;;;;;-141.59;100.00;61776.25;5042562;28;20320;-80
2022/03/13 10:42:03;;;;;;;3.07;2.43;;;;;;;-141.59;100.00;61776.25;5042372;28;20308;-79
2022/03/13 10:44:34;;;;;;;4.00;2.60;;;;;;;-141.59;100.00;61776.25;5042229;28;20233;-79
2022/03/13 10:47:05;;;;;;;3.13;2.40;;;;;;;-141.59;100.00;61776.25;5028194;28;20256;-80
2022/03/13 10:49:36;;;;;;;2.80;2.30;;;;;;;-141.59;100.00;61776.25;5045004;28;20217;-79
2022/03/13 10:52:22;;;;;;;3.70;2.60;;;;;;;-141.59;100.00;61776.25;5039090;28;20199;-79
2022/03/13 10:54:51;;;;;;;3.63;2.73;;;;;;;-141.59;100.00;61776.25;5039450;28;20330;-80
2022/03/13 10:57:19;;;;;;;3.47;2.63;;;;;;;-141.59;100.00;61776.25;5028149;28;20207;-80
2022/03/13 10:59:46;;;;;;;2.90;2.43;;;;;;;-141.59;100.00;61776.25;5025139;28;20230;-80
2022/03/13 11:02:15;;;;;;;5.47;2.87;;;;;;;-141.59;100.00;61776.25;5026527;28;20280;-80
2022/03/13 11:04:55;;;;;;;4.47;2.70;;;;;;;-141.59;100.00;61776.25;5014183;28;20231;-80
2022/03/13 11:07:24;;;;;;;4.67;2.53;;;;;;;-141.59;100.00;61776.25;5042597;28;20206;-80
2022/03/13 11:09:52;;;;;;;3.43;2.40;;;;;;;-141.59;100.00;61776.25;5040771;28;20297;-80
2022/03/13 11:12:21;;;;;;;3.03;2.63;;;;;;;-141.59;100.00;61776.25;5048023;28;20249;-80
2022/03/13 11:14:49;;;;;;;3.23;2.63;;;;;;;-141.59;100.00;61776.25;5025497;28;20203;-81
2022/03/13 11:17:18;;;;;;;3.97;2.57;;;;;;;-141.59;100.00;61776.25;5035664;28;20210;-80
2022/03/13 11:19:48;;;;;;;2.97;2.50;;;;;;;-141.59;100.00;61776.25;5046997;28;20226;-80
2022/03/13 11:22:17;;;;;;;2.80;2.50;;;;;;;-141.59;100.00;61776.25;5035915;28;20206;-79
2022/03/13 11:24:45;;;;;;;4.17;2.60;;;;;;;-141.59;100.00;61776.25;5045621;28;20218;-79
2022/03/13 11:27:15;;;;;;;4.63;2.87;;;;;;;-141.59;100.00;61776.25;5021102;28;20210;-79
2022/03/13 11:29:44;;;;;;;3.53;2.20;;;;;;;-141.59;100.00;61776.25;5028513;28;20206;-80
2022/03/13 11:32:38;;;;;;;3.97;3.00;;;;;;;-141.59;100.00;61776.25;5040181;28;20212;-79
2022/03/13 11:35:29;;;;;;;4.10;3.00;;;;;;;-141.59;100.00;61776.25;5045411;28;20218;-80